sensor_id;sensor_type;location;lat;lon;timestamp;P1;durP1;ratioP1;P2;durP2;ratioP2
1545;SDS011;766;51.502;9.752;2023-03-23T00:02:08;1.58;;;1.20;;
1545;SDS011;766;51.502;9.752;2023-03-23T00:04:35;2.75;;;1.15;;
1545;SDS011;766;51.502;9.752;2023-03-23T00:07:03;1.50;;;1.00;;
1545;SDS011;766;51.502;9.752;2023-03-23T00:09:31;1.45;;;1.00;;
1545;SDS011;766;51.502;9.752;2023-03-23T00:11:59;5.68;;;1.35;;
1545;SDS011;766;51.502;9.752;2023-03-23T00:14:31;1.45;;;1.10;;
1545;SDS011;766;51.502;9.752;2023-03-23T00:17:06;2.38;;;1.10;;
1545;SDS011;766;51.502;9.752;2023-03-23T00:19:38;1.15;;;1.00;;
1545;SDS011;766;51.502;9.752;2023-03-23T00:23:23;4.25;;;1.27;;
1545;SDS011;766;51.502;9.752;2023-03-23T00:26:11;1.77;;;1.02;;
1545;SDS011;766;51.502;9.752;2023-03-23T00:28:41;4.60;;;1.17;;
1545;SDS011;766;51.502;9.752;2023-03-23T00:31:16;2.17;;;1.05;;
1545;SDS011;766;51.502;9.752;2023-03-23T00:33:48;4.20;;;1.17;;
1545;SDS011;766;51.502;9.752;2023-03-23T00:36:22;1.52;;;0.98;;
1545;SDS011;766;51.502;9.752;2023-03-23T00:38:53;6.57;;;1.30;;
1545;SDS011;766;51.502;9.752;2023-03-23T00:41:34;3.17;;;1.10;;
1545;SDS011;766;51.502;9.752;2023-03-23T00:44:07;2.20;;;1.13;;
1545;SDS011;766;51.502;9.752;2023-03-23T00:46:54;3.40;;;1.23;;
1545;SDS011;766;51.502;9.752;2023-03-23T00:49:34;3.83;;;1.20;;
1545;SDS011;766;51.502;9.752;2023-03-23T00:52:04;3.47;;;1.10;;
1545;SDS011;766;51.502;9.752;2023-03-23T00:54:42;4.32;;;1.17;;
1545;SDS011;766;51.502;9.752;2023-03-23T00:57:20;3.45;;;1.20;;
1545;SDS011;766;51.502;9.752;2023-03-23T01:00:03;2.25;;;1.20;;
1545;SDS011;766;51.502;9.752;2023-03-23T01:02:38;4.63;;;1.23;;
1545;SDS011;766;51.502;9.752;2023-03-23T01:05:12;3.80;;;1.90;;
1545;SDS011;766;51.502;9.752;2023-03-23T01:07:43;4.55;;;1.30;;
1545;SDS011;766;51.502;9.752;2023-03-23T01:10:14;5.63;;;2.05;;
1545;SDS011;766;51.502;9.752;2023-03-23T01:12:54;4.10;;;1.38;;
1545;SDS011;766;51.502;9.752;2023-03-23T01:15:23;3.60;;;1.30;;
1545;SDS011;766;51.502;9.752;2023-03-23T01:17:55;2.67;;;1.33;;
1545;SDS011;766;51.502;9.752;2023-03-23T01:20:26;1.98;;;1.10;;
1545;SDS011;766;51.502;9.752;2023-03-23T01:23:02;7.88;;;1.70;;
1545;SDS011;766;51.502;9.752;2023-03-23T01:25:31;4.50;;;1.40;;
1545;SDS011;766;51.502;9.752;2023-03-23T01:28:04;3.10;;;1.10;;
1545;SDS011;766;51.502;9.752;2023-03-23T01:30:36;3.60;;;1.17;;
1545;SDS011;766;51.502;9.752;2023-03-23T01:33:04;2.72;;;1.10;;
1545;SDS011;766;51.502;9.752;2023-03-23T01:35:31;5.82;;;1.50;;
1545;SDS011;766;51.502;9.752;2023-03-23T01:38:08;2.30;;;1.15;;
1545;SDS011;766;51.502;9.752;2023-03-23T01:40:55;2.83;;;1.17;;
1545;SDS011;766;51.502;9.752;2023-03-23T01:43:32;1.38;;;1.20;;
1545;SDS011;766;51.502;9.752;2023-03-23T01:46:07;2.95;;;1.13;;
1545;SDS011;766;51.502;9.752;2023-03-23T01:48:42;2.47;;;1.05;;
1545;SDS011;766;51.502;9.752;2023-03-23T01:51:18;4.65;;;1.10;;
1545;SDS011;766;51.502;9.752;2023-03-23T01:53:56;1.20;;;0.90;;
1545;SDS011;766;51.502;9.752;2023-03-23T01:56:29;3.58;;;1.10;;
1545;SDS011;766;51.502;9.752;2023-03-23T01:59:13;4.68;;;1.75;;
1545;SDS011;766;51.502;9.752;2023-03-23T02:01:52;5.28;;;1.30;;
1545;SDS011;766;51.502;9.752;2023-03-23T02:04:33;3.25;;;2.00;;
1545;SDS011;766;51.502;9.752;2023-03-23T02:07:02;2.20;;;1.23;;
1545;SDS011;766;51.502;9.752;2023-03-23T02:09:36;3.10;;;1.20;;
1545;SDS011;766;51.502;9.752;2023-03-23T02:12:08;2.95;;;1.23;;
1545;SDS011;766;51.502;9.752;2023-03-23T02:18:21;3.10;;;1.02;;
1545;SDS011;766;51.502;9.752;2023-03-23T02:24:58;1.33;;;0.90;;
1545;SDS011;766;51.502;9.752;2023-03-23T02:28:19;1.60;;;0.85;;
1545;SDS011;766;51.502;9.752;2023-03-23T02:31:18;2.40;;;1.20;;
1545;SDS011;766;51.502;9.752;2023-03-23T02:34:09;2.38;;;1.20;;
1545;SDS011;766;51.502;9.752;2023-03-23T02:36:58;3.08;;;1.13;;
1545;SDS011;766;51.502;9.752;2023-03-23T02:39:36;4.25;;;1.05;;
1545;SDS011;766;51.502;9.752;2023-03-23T02:42:20;2.78;;;0.98;;
1545;SDS011;766;51.502;9.752;2023-03-23T02:44:58;3.83;;;1.17;;
1545;SDS011;766;51.502;9.752;2023-03-23T02:47:35;2.45;;;0.77;;
1545;SDS011;766;51.502;9.752;2023-03-23T02:50:14;3.88;;;1.27;;
1545;SDS011;766;51.502;9.752;2023-03-23T02:52:58;4.78;;;1.27;;
1545;SDS011;766;51.502;9.752;2023-03-23T02:55:28;2.25;;;1.23;;
1545;SDS011;766;51.502;9.752;2023-03-23T02:57:56;2.47;;;1.30;;
1545;SDS011;766;51.502;9.752;2023-03-23T03:00:32;2.75;;;1.35;;
1545;SDS011;766;51.502;9.752;2023-03-23T03:03:16;4.25;;;1.35;;
1545;SDS011;766;51.502;9.752;2023-03-23T03:06:09;1.80;;;1.33;;
1545;SDS011;766;51.502;9.752;2023-03-23T03:08:48;1.40;;;1.05;;
1545;SDS011;766;51.502;9.752;2023-03-23T03:11:22;2.25;;;1.35;;
1545;SDS011;766;51.502;9.752;2023-03-23T03:13:52;2.53;;;1.48;;
1545;SDS011;766;51.502;9.752;2023-03-23T03:16:33;3.40;;;1.50;;
1545;SDS011;766;51.502;9.752;2023-03-23T03:19:15;4.72;;;2.30;;
1545;SDS011;766;51.502;9.752;2023-03-23T03:21:51;6.28;;;1.85;;
1545;SDS011;766;51.502;9.752;2023-03-23T03:24:22;4.55;;;1.50;;
1545;SDS011;766;51.502;9.752;2023-03-23T03:26:57;5.72;;;1.92;;
1545;SDS011;766;51.502;9.752;2023-03-23T03:29:47;3.38;;;1.45;;
1545;SDS011;766;51.502;9.752;2023-03-23T03:32:28;2.10;;;1.60;;
1545;SDS011;766;51.502;9.752;2023-03-23T03:36:28;6.22;;;1.42;;
1545;SDS011;766;51.502;9.752;2023-03-23T03:39:03;2.40;;;1.60;;
1545;SDS011;766;51.502;9.752;2023-03-23T03:41:35;4.78;;;1.60;;
1545;SDS011;766;51.502;9.752;2023-03-23T03:44:12;4.40;;;1.58;;
1545;SDS011;766;51.502;9.752;2023-03-23T03:46:47;3.08;;;1.25;;
1545;SDS011;766;51.502;9.752;2023-03-23T03:49:39;1.80;;;1.45;;
1545;SDS011;766;51.502;9.752;2023-03-23T03:52:10;4.82;;;1.48;;
1545;SDS011;766;51.502;9.752;2023-03-23T03:54:56;3.70;;;1.42;;
1545;SDS011;766;51.502;9.752;2023-03-23T03:57:39;2.92;;;1.40;;
1545;SDS011;766;51.502;9.752;2023-03-23T04:00:29;3.38;;;1.80;;
1545;SDS011;766;51.502;9.752;2023-03-23T04:03:17;3.92;;;1.63;;
1545;SDS011;766;51.502;9.752;2023-03-23T04:05:51;4.28;;;1.58;;
1545;SDS011;766;51.502;9.752;2023-03-23T04:08:48;7.65;;;2.15;;
1545;SDS011;766;51.502;9.752;2023-03-23T04:11:24;4.72;;;1.80;;
1545;SDS011;766;51.502;9.752;2023-03-23T04:13:53;2.97;;;1.90;;
1545;SDS011;766;51.502;9.752;2023-03-23T04:16:21;5.82;;;1.83;;
1545;SDS011;766;51.502;9.752;2023-03-23T04:19:00;5.70;;;2.05;;
1545;SDS011;766;51.502;9.752;2023-03-23T04:21:29;3.45;;;1.50;;
1545;SDS011;766;51.502;9.752;2023-03-23T04:23:59;4.65;;;2.05;;
1545;SDS011;766;51.502;9.752;2023-03-23T04:26:37;3.83;;;1.83;;
1545;SDS011;766;51.502;9.752;2023-03-23T04:29:05;3.30;;;1.95;;
1545;SDS011;766;51.502;9.752;2023-03-23T04:31:36;4.35;;;2.33;;
1545;SDS011;766;51.502;9.752;2023-03-23T04:34:14;2.55;;;1.90;;
1545;SDS011;766;51.502;9.752;2023-03-23T04:36:44;4.28;;;1.88;;
1545;SDS011;766;51.502;9.752;2023-03-23T04:39:41;3.17;;;1.63;;
1545;SDS011;766;51.502;9.752;2023-03-23T04:42:20;3.97;;;1.90;;
1545;SDS011;766;51.502;9.752;2023-03-23T04:44:51;5.45;;;2.40;;
1545;SDS011;766;51.502;9.752;2023-03-23T04:50:24;2.45;;;1.83;;
1545;SDS011;766;51.502;9.752;2023-03-23T04:53:09;4.22;;;2.38;;
1545;SDS011;766;51.502;9.752;2023-03-23T04:55:36;6.32;;;2.30;;
1545;SDS011;766;51.502;9.752;2023-03-23T04:58:16;4.53;;;2.20;;
1545;SDS011;766;51.502;9.752;2023-03-23T05:00:50;2.70;;;1.98;;
1545;SDS011;766;51.502;9.752;2023-03-23T05:03:22;4.18;;;2.05;;
1545;SDS011;766;51.502;9.752;2023-03-23T05:05:51;3.30;;;2.17;;
1545;SDS011;766;51.502;9.752;2023-03-23T05:08:22;4.70;;;2.10;;
1545;SDS011;766;51.502;9.752;2023-03-23T05:11:03;2.60;;;1.92;;
1545;SDS011;766;51.502;9.752;2023-03-23T05:13:36;4.10;;;2.10;;
1545;SDS011;766;51.502;9.752;2023-03-23T05:16:16;3.45;;;2.33;;
1545;SDS011;766;51.502;9.752;2023-03-23T05:26:36;7.60;;;2.10;;
1545;SDS011;766;51.502;9.752;2023-03-23T05:29:14;4.00;;;2.10;;
1545;SDS011;766;51.502;9.752;2023-03-23T05:33:03;2.72;;;1.80;;
1545;SDS011;766;51.502;9.752;2023-03-23T05:36:13;3.20;;;2.35;;
1545;SDS011;766;51.502;9.752;2023-03-23T05:38:48;2.75;;;2.05;;
1545;SDS011;766;51.502;9.752;2023-03-23T05:51:14;3.38;;;1.65;;
1545;SDS011;766;51.502;9.752;2023-03-23T05:53:42;8.20;;;2.10;;
1545;SDS011;766;51.502;9.752;2023-03-23T05:56:09;2.72;;;1.88;;
1545;SDS011;766;51.502;9.752;2023-03-23T06:02:47;5.32;;;1.83;;
1545;SDS011;766;51.502;9.752;2023-03-23T06:05:28;2.58;;;1.70;;
1545;SDS011;766;51.502;9.752;2023-03-23T06:07:57;4.30;;;1.60;;
1545;SDS011;766;51.502;9.752;2023-03-23T06:10:25;3.42;;;1.70;;
1545;SDS011;766;51.502;9.752;2023-03-23T06:12:53;2.63;;;1.85;;
1545;SDS011;766;51.502;9.752;2023-03-23T06:15:21;3.40;;;2.00;;
1545;SDS011;766;51.502;9.752;2023-03-23T06:17:50;2.65;;;1.65;;
1545;SDS011;766;51.502;9.752;2023-03-23T06:20:36;2.95;;;1.60;;
1545;SDS011;766;51.502;9.752;2023-03-23T06:23:05;2.97;;;1.45;;
1545;SDS011;766;51.502;9.752;2023-03-23T06:25:36;5.32;;;1.30;;
1545;SDS011;766;51.502;9.752;2023-03-23T06:28:04;2.67;;;1.63;;
1545;SDS011;766;51.502;9.752;2023-03-23T06:30:31;3.92;;;1.52;;
1545;SDS011;766;51.502;9.752;2023-03-23T06:32:59;2.33;;;1.55;;
1545;SDS011;766;51.502;9.752;2023-03-23T06:35:39;2.30;;;1.70;;
1545;SDS011;766;51.502;9.752;2023-03-23T06:38:07;3.55;;;1.50;;
1545;SDS011;766;51.502;9.752;2023-03-23T06:40:35;2.90;;;1.20;;
1545;SDS011;766;51.502;9.752;2023-03-23T06:43:35;2.22;;;1.23;;
1545;SDS011;766;51.502;9.752;2023-03-23T06:46:30;4.05;;;1.60;;
1545;SDS011;766;51.502;9.752;2023-03-23T06:49:49;2.17;;;1.95;;
1545;SDS011;766;51.502;9.752;2023-03-23T07:00:14;3.40;;;1.40;;
1545;SDS011;766;51.502;9.752;2023-03-23T07:02:42;1.63;;;1.20;;
1545;SDS011;766;51.502;9.752;2023-03-23T07:05:10;1.85;;;1.30;;
1545;SDS011;766;51.502;9.752;2023-03-23T07:07:39;2.78;;;1.58;;
1545;SDS011;766;51.502;9.752;2023-03-23T07:10:07;2.67;;;1.50;;
1545;SDS011;766;51.502;9.752;2023-03-23T07:13:10;2.40;;;1.42;;
1545;SDS011;766;51.502;9.752;2023-03-23T07:15:43;3.45;;;1.48;;
1545;SDS011;766;51.502;9.752;2023-03-23T07:18:58;3.95;;;1.77;;
1545;SDS011;766;51.502;9.752;2023-03-23T07:22:03;3.15;;;1.60;;
1545;SDS011;766;51.502;9.752;2023-03-23T07:24:36;3.45;;;1.50;;
1545;SDS011;766;51.502;9.752;2023-03-23T07:31:38;2.08;;;1.30;;
1545;SDS011;766;51.502;9.752;2023-03-23T07:34:22;2.35;;;1.67;;
1545;SDS011;766;51.502;9.752;2023-03-23T07:37:23;3.88;;;1.83;;
1545;SDS011;766;51.502;9.752;2023-03-23T07:39:58;2.92;;;1.60;;
1545;SDS011;766;51.502;9.752;2023-03-23T07:42:34;2.83;;;1.30;;
1545;SDS011;766;51.502;9.752;2023-03-23T07:45:23;3.08;;;1.50;;
1545;SDS011;766;51.502;9.752;2023-03-23T07:48:22;2.88;;;1.70;;
1545;SDS011;766;51.502;9.752;2023-03-23T07:50:53;4.90;;;1.40;;
1545;SDS011;766;51.502;9.752;2023-03-23T07:53:31;3.35;;;1.40;;
1545;SDS011;766;51.502;9.752;2023-03-23T07:56:03;2.55;;;1.50;;
1545;SDS011;766;51.502;9.752;2023-03-23T08:02:46;1.33;;;1.20;;
1545;SDS011;766;51.502;9.752;2023-03-23T08:05:17;2.85;;;1.90;;
1545;SDS011;766;51.502;9.752;2023-03-23T08:07:48;1.73;;;1.33;;
1545;SDS011;766;51.502;9.752;2023-03-23T08:10:24;5.38;;;1.55;;
1545;SDS011;766;51.502;9.752;2023-03-23T08:12:54;1.95;;;1.60;;
1545;SDS011;766;51.502;9.752;2023-03-23T08:15:28;5.47;;;1.77;;
1545;SDS011;766;51.502;9.752;2023-03-23T08:18:07;2.72;;;1.27;;
1545;SDS011;766;51.502;9.752;2023-03-23T08:20:50;1.83;;;1.50;;
1545;SDS011;766;51.502;9.752;2023-03-23T08:23:39;3.85;;;1.65;;
1545;SDS011;766;51.502;9.752;2023-03-23T08:26:12;3.45;;;1.48;;
1545;SDS011;766;51.502;9.752;2023-03-23T08:28:41;1.90;;;1.50;;
1545;SDS011;766;51.502;9.752;2023-03-23T08:31:26;4.05;;;1.55;;
1545;SDS011;766;51.502;9.752;2023-03-23T08:34:25;1.80;;;1.52;;
1545;SDS011;766;51.502;9.752;2023-03-23T08:38:35;3.45;;;2.03;;
1545;SDS011;766;51.502;9.752;2023-03-23T08:41:14;3.13;;;1.55;;
1545;SDS011;766;51.502;9.752;2023-03-23T08:43:45;3.27;;;1.80;;
1545;SDS011;766;51.502;9.752;2023-03-23T08:46:28;3.90;;;1.83;;
1545;SDS011;766;51.502;9.752;2023-03-23T08:49:03;1.90;;;1.50;;
1545;SDS011;766;51.502;9.752;2023-03-23T08:51:32;4.50;;;1.65;;
1545;SDS011;766;51.502;9.752;2023-03-23T08:54:14;4.65;;;1.80;;
1545;SDS011;766;51.502;9.752;2023-03-23T08:56:49;3.25;;;1.73;;
1545;SDS011;766;51.502;9.752;2023-03-23T08:59:22;2.40;;;1.70;;
1545;SDS011;766;51.502;9.752;2023-03-23T09:01:52;5.82;;;2.30;;
1545;SDS011;766;51.502;9.752;2023-03-23T09:04:33;3.45;;;1.88;;
1545;SDS011;766;51.502;9.752;2023-03-23T09:07:12;1.80;;;1.45;;
1545;SDS011;766;51.502;9.752;2023-03-23T09:10:02;6.00;;;2.15;;
1545;SDS011;766;51.502;9.752;2023-03-23T09:12:41;4.95;;;1.67;;
1545;SDS011;766;51.502;9.752;2023-03-23T09:15:16;3.72;;;1.65;;
1545;SDS011;766;51.502;9.752;2023-03-23T09:18:10;5.95;;;1.48;;
1545;SDS011;766;51.502;9.752;2023-03-23T09:20:43;3.67;;;1.80;;
1545;SDS011;766;51.502;9.752;2023-03-23T09:23:29;3.10;;;1.58;;
1545;SDS011;766;51.502;9.752;2023-03-23T09:26:08;3.08;;;1.88;;
1545;SDS011;766;51.502;9.752;2023-03-23T09:28:51;5.20;;;1.75;;
1545;SDS011;766;51.502;9.752;2023-03-23T09:31:22;2.88;;;1.70;;
1545;SDS011;766;51.502;9.752;2023-03-23T09:33:52;2.90;;;1.70;;
1545;SDS011;766;51.502;9.752;2023-03-23T09:36:21;3.92;;;1.98;;
1545;SDS011;766;51.502;9.752;2023-03-23T09:38:51;3.17;;;1.63;;
1545;SDS011;766;51.502;9.752;2023-03-23T09:41:29;3.55;;;1.85;;
1545;SDS011;766;51.502;9.752;2023-03-23T09:44:12;3.95;;;1.98;;
1545;SDS011;766;51.502;9.752;2023-03-23T09:46:50;3.28;;;1.58;;
1545;SDS011;766;51.502;9.752;2023-03-23T09:49:23;5.75;;;1.98;;
1545;SDS011;766;51.502;9.752;2023-03-23T09:51:56;3.63;;;1.67;;
1545;SDS011;766;51.502;9.752;2023-03-23T09:54:36;1.60;;;1.48;;
1545;SDS011;766;51.502;9.752;2023-03-23T09:57:14;2.38;;;1.77;;
1545;SDS011;766;51.502;9.752;2023-03-23T09:59:53;3.03;;;1.73;;
1545;SDS011;766;51.502;9.752;2023-03-23T10:02:43;2.72;;;1.60;;
1545;SDS011;766;51.502;9.752;2023-03-23T10:05:47;3.58;;;1.73;;
1545;SDS011;766;51.502;9.752;2023-03-23T10:08:20;3.45;;;1.77;;
1545;SDS011;766;51.502;9.752;2023-03-23T10:10:57;1.92;;;1.55;;
1545;SDS011;766;51.502;9.752;2023-03-23T10:14:00;2.30;;;1.52;;
1545;SDS011;766;51.502;9.752;2023-03-23T10:16:55;3.65;;;1.50;;
1545;SDS011;766;51.502;9.752;2023-03-23T10:19:38;3.50;;;1.55;;
1545;SDS011;766;51.502;9.752;2023-03-23T10:22:14;3.22;;;1.35;;
1545;SDS011;766;51.502;9.752;2023-03-23T10:24:51;2.05;;;1.27;;
1545;SDS011;766;51.502;9.752;2023-03-23T10:27:33;3.55;;;1.60;;
1545;SDS011;766;51.502;9.752;2023-03-23T10:30:16;3.47;;;1.50;;
1545;SDS011;766;51.502;9.752;2023-03-23T10:33:01;1.60;;;1.10;;
1545;SDS011;766;51.502;9.752;2023-03-23T10:35:55;2.58;;;1.30;;
1545;SDS011;766;51.502;9.752;2023-03-23T10:38:35;3.03;;;1.50;;
1545;SDS011;766;51.502;9.752;2023-03-23T10:41:10;2.55;;;1.48;;
1545;SDS011;766;51.502;9.752;2023-03-23T10:43:42;2.30;;;1.73;;
1545;SDS011;766;51.502;9.752;2023-03-23T10:46:21;7.25;;;1.40;;
1545;SDS011;766;51.502;9.752;2023-03-23T10:49:12;2.45;;;1.20;;
1545;SDS011;766;51.502;9.752;2023-03-23T10:52:03;1.67;;;1.30;;
1545;SDS011;766;51.502;9.752;2023-03-23T10:54:48;5.07;;;1.40;;
1545;SDS011;766;51.502;9.752;2023-03-23T10:57:23;7.03;;;1.50;;
1545;SDS011;766;51.502;9.752;2023-03-23T10:59:59;3.88;;;1.40;;
1545;SDS011;766;51.502;9.752;2023-03-23T11:02:57;3.22;;;1.30;;
1545;SDS011;766;51.502;9.752;2023-03-23T11:05:44;4.68;;;1.15;;
1545;SDS011;766;51.502;9.752;2023-03-23T11:08:16;4.93;;;1.33;;
1545;SDS011;766;51.502;9.752;2023-03-23T11:10:48;3.30;;;1.17;;
1545;SDS011;766;51.502;9.752;2023-03-23T11:13:27;3.28;;;1.30;;
1545;SDS011;766;51.502;9.752;2023-03-23T11:16:04;4.05;;;1.10;;
1545;SDS011;766;51.502;9.752;2023-03-23T11:18:39;4.35;;;1.67;;
1545;SDS011;766;51.502;9.752;2023-03-23T11:21:19;3.42;;;1.20;;
1545;SDS011;766;51.502;9.752;2023-03-23T11:23:51;2.40;;;1.10;;
1545;SDS011;766;51.502;9.752;2023-03-23T11:26:29;1.95;;;1.10;;
1545;SDS011;766;51.502;9.752;2023-03-23T11:29:14;4.03;;;1.30;;
1545;SDS011;766;51.502;9.752;2023-03-23T11:31:53;5.78;;;1.00;;
1545;SDS011;766;51.502;9.752;2023-03-23T11:34:43;2.42;;;1.10;;
1545;SDS011;766;51.502;9.752;2023-03-23T11:37:27;1.80;;;1.08;;
1545;SDS011;766;51.502;9.752;2023-03-23T11:40:02;2.95;;;1.20;;
1545;SDS011;766;51.502;9.752;2023-03-23T11:42:45;3.45;;;1.02;;
1545;SDS011;766;51.502;9.752;2023-03-23T11:45:19;3.15;;;1.20;;
1545;SDS011;766;51.502;9.752;2023-03-23T11:48:12;4.43;;;1.45;;
1545;SDS011;766;51.502;9.752;2023-03-23T11:50:52;3.05;;;1.17;;
1545;SDS011;766;51.502;9.752;2023-03-23T11:53:46;2.75;;;1.10;;
1545;SDS011;766;51.502;9.752;2023-03-23T11:56:55;3.97;;;1.30;;
1545;SDS011;766;51.502;9.752;2023-03-23T11:59:26;2.20;;;1.05;;
1545;SDS011;766;51.502;9.752;2023-03-23T12:01:56;2.42;;;1.15;;
1545;SDS011;766;51.502;9.752;2023-03-23T12:04:40;3.83;;;1.35;;
1545;SDS011;766;51.502;9.752;2023-03-23T12:07:27;4.10;;;1.25;;
1545;SDS011;766;51.502;9.752;2023-03-23T12:10:25;4.78;;;1.05;;
1545;SDS011;766;51.502;9.752;2023-03-23T12:13:06;4.30;;;1.27;;
1545;SDS011;766;51.502;9.752;2023-03-23T12:15:43;2.78;;;1.00;;
1545;SDS011;766;51.502;9.752;2023-03-23T12:18:17;2.58;;;1.00;;
1545;SDS011;766;51.502;9.752;2023-03-23T12:20:57;2.33;;;1.23;;
1545;SDS011;766;51.502;9.752;2023-03-23T12:23:36;2.63;;;1.10;;
1545;SDS011;766;51.502;9.752;2023-03-23T12:26:16;4.78;;;1.50;;
1545;SDS011;766;51.502;9.752;2023-03-23T12:28:57;3.03;;;1.10;;
1545;SDS011;766;51.502;9.752;2023-03-23T12:32:13;1.15;;;0.95;;
1545;SDS011;766;51.502;9.752;2023-03-23T12:35:11;4.50;;;1.42;;
1545;SDS011;766;51.502;9.752;2023-03-23T12:37:57;2.13;;;1.10;;
1545;SDS011;766;51.502;9.752;2023-03-23T12:40:54;1.90;;;1.15;;
1545;SDS011;766;51.502;9.752;2023-03-23T12:43:43;2.28;;;1.10;;
1545;SDS011;766;51.502;9.752;2023-03-23T12:46:57;4.90;;;1.10;;
1545;SDS011;766;51.502;9.752;2023-03-23T12:50:18;2.13;;;0.90;;
1545;SDS011;766;51.502;9.752;2023-03-23T12:53:11;4.45;;;1.35;;
1545;SDS011;766;51.502;9.752;2023-03-23T12:56:03;5.90;;;1.23;;
1545;SDS011;766;51.502;9.752;2023-03-23T12:58:48;6.00;;;2.17;;
1545;SDS011;766;51.502;9.752;2023-03-23T13:02:54;3.10;;;1.38;;
1545;SDS011;766;51.502;9.752;2023-03-23T13:05:36;3.10;;;1.20;;
1545;SDS011;766;51.502;9.752;2023-03-23T13:08:12;2.75;;;1.10;;
1545;SDS011;766;51.502;9.752;2023-03-23T13:10:44;2.58;;;1.00;;
1545;SDS011;766;51.502;9.752;2023-03-23T13:13:17;2.28;;;0.90;;
1545;SDS011;766;51.502;9.752;2023-03-23T13:15:49;2.05;;;1.10;;
1545;SDS011;766;51.502;9.752;2023-03-23T13:18:26;2.22;;;0.75;;
1545;SDS011;766;51.502;9.752;2023-03-23T13:21:02;1.30;;;0.90;;
1545;SDS011;766;51.502;9.752;2023-03-23T13:23:37;1.35;;;0.80;;
1545;SDS011;766;51.502;9.752;2023-03-23T13:26:08;1.67;;;0.90;;
1545;SDS011;766;51.502;9.752;2023-03-23T13:28:48;2.45;;;0.90;;
1545;SDS011;766;51.502;9.752;2023-03-23T13:31:28;2.45;;;0.90;;
1545;SDS011;766;51.502;9.752;2023-03-23T13:34:00;1.40;;;0.85;;
1545;SDS011;766;51.502;9.752;2023-03-23T13:36:31;2.38;;;1.00;;
1545;SDS011;766;51.502;9.752;2023-03-23T13:39:03;2.53;;;1.10;;
1545;SDS011;766;51.502;9.752;2023-03-23T13:41:44;1.63;;;0.70;;
1545;SDS011;766;51.502;9.752;2023-03-23T13:44:20;1.58;;;0.90;;
1545;SDS011;766;51.502;9.752;2023-03-23T13:46:56;2.05;;;0.93;;
1545;SDS011;766;51.502;9.752;2023-03-23T13:49:50;2.42;;;0.82;;
1545;SDS011;766;51.502;9.752;2023-03-23T13:52:36;3.88;;;0.95;;
1545;SDS011;766;51.502;9.752;2023-03-23T13:55:17;1.40;;;0.90;;
1545;SDS011;766;51.502;9.752;2023-03-23T13:57:55;3.60;;;0.73;;
1545;SDS011;766;51.502;9.752;2023-03-23T14:00:44;1.80;;;0.90;;
1545;SDS011;766;51.502;9.752;2023-03-23T14:03:24;3.03;;;1.02;;
1545;SDS011;766;51.502;9.752;2023-03-23T14:06:04;2.38;;;1.10;;
1545;SDS011;766;51.502;9.752;2023-03-23T14:08:50;2.60;;;1.00;;
1545;SDS011;766;51.502;9.752;2023-03-23T14:11:23;1.88;;;1.08;;
1545;SDS011;766;51.502;9.752;2023-03-23T14:14:20;2.03;;;1.25;;
1545;SDS011;766;51.502;9.752;2023-03-23T14:17:06;1.73;;;1.00;;
1545;SDS011;766;51.502;9.752;2023-03-23T14:19:40;1.30;;;0.82;;
1545;SDS011;766;51.502;9.752;2023-03-23T14:22:32;1.50;;;0.90;;
1545;SDS011;766;51.502;9.752;2023-03-23T14:25:10;2.03;;;0.93;;
1545;SDS011;766;51.502;9.752;2023-03-23T14:27:39;3.83;;;0.93;;
1545;SDS011;766;51.502;9.752;2023-03-23T14:30:21;1.13;;;0.70;;
1545;SDS011;766;51.502;9.752;2023-03-23T14:33:04;1.23;;;0.70;;
1545;SDS011;766;51.502;9.752;2023-03-23T14:35:39;2.80;;;0.90;;
1545;SDS011;766;51.502;9.752;2023-03-23T14:38:16;1.85;;;0.80;;
1545;SDS011;766;51.502;9.752;2023-03-23T14:40:52;0.90;;;0.80;;
1545;SDS011;766;51.502;9.752;2023-03-23T14:43:22;2.90;;;0.80;;
1545;SDS011;766;51.502;9.752;2023-03-23T14:45:58;1.05;;;0.82;;
1545;SDS011;766;51.502;9.752;2023-03-23T14:51:17;3.55;;;1.23;;
1545;SDS011;766;51.502;9.752;2023-03-23T14:53:46;1.23;;;0.80;;
1545;SDS011;766;51.502;9.752;2023-03-23T14:56:22;2.08;;;0.93;;
1545;SDS011;766;51.502;9.752;2023-03-23T14:59:02;0.95;;;0.73;;
1545;SDS011;766;51.502;9.752;2023-03-23T15:01:39;3.92;;;0.90;;
1545;SDS011;766;51.502;9.752;2023-03-23T15:04:19;4.05;;;0.98;;
1545;SDS011;766;51.502;9.752;2023-03-23T15:06:54;2.42;;;0.95;;
1545;SDS011;766;51.502;9.752;2023-03-23T15:09:32;1.40;;;0.70;;
1545;SDS011;766;51.502;9.752;2023-03-23T15:12:19;1.88;;;0.82;;
1545;SDS011;766;51.502;9.752;2023-03-23T15:14:49;3.72;;;0.80;;
1545;SDS011;766;51.502;9.752;2023-03-23T15:17:22;3.40;;;1.30;;
1545;SDS011;766;51.502;9.752;2023-03-23T15:20:09;4.03;;;1.05;;
1545;SDS011;766;51.502;9.752;2023-03-23T15:22:50;1.15;;;0.60;;
1545;SDS011;766;51.502;9.752;2023-03-23T15:25:18;2.30;;;0.80;;
1545;SDS011;766;51.502;9.752;2023-03-23T15:27:52;2.63;;;0.65;;
1545;SDS011;766;51.502;9.752;2023-03-23T15:30:57;2.22;;;0.98;;
1545;SDS011;766;51.502;9.752;2023-03-23T15:33:34;1.42;;;0.68;;
1545;SDS011;766;51.502;9.752;2023-03-23T15:36:13;2.10;;;0.82;;
1545;SDS011;766;51.502;9.752;2023-03-23T15:38:46;2.30;;;0.70;;
1545;SDS011;766;51.502;9.752;2023-03-23T15:41:23;1.80;;;0.80;;
1545;SDS011;766;51.502;9.752;2023-03-23T15:44:12;2.88;;;0.85;;
1545;SDS011;766;51.502;9.752;2023-03-23T15:46:47;1.23;;;0.88;;
1545;SDS011;766;51.502;9.752;2023-03-23T15:49:16;1.27;;;0.80;;
1545;SDS011;766;51.502;9.752;2023-03-23T15:51:46;1.60;;;0.73;;
1545;SDS011;766;51.502;9.752;2023-03-23T15:54:14;1.13;;;0.82;;
1545;SDS011;766;51.502;9.752;2023-03-23T15:56:42;2.63;;;0.70;;
1545;SDS011;766;51.502;9.752;2023-03-23T16:02:53;2.10;;;0.75;;
1545;SDS011;766;51.502;9.752;2023-03-23T16:09:03;2.08;;;0.70;;
1545;SDS011;766;51.502;9.752;2023-03-23T16:11:40;1.77;;;0.70;;
1545;SDS011;766;51.502;9.752;2023-03-23T16:14:21;3.05;;;0.85;;
1545;SDS011;766;51.502;9.752;2023-03-23T16:17:02;2.42;;;0.82;;
1545;SDS011;766;51.502;9.752;2023-03-23T16:19:38;1.25;;;0.77;;
1545;SDS011;766;51.502;9.752;2023-03-23T16:22:16;1.92;;;0.80;;
1545;SDS011;766;51.502;9.752;2023-03-23T16:25:00;2.63;;;0.80;;
1545;SDS011;766;51.502;9.752;2023-03-23T16:27:48;0.75;;;0.70;;
1545;SDS011;766;51.502;9.752;2023-03-23T16:30:32;1.70;;;0.75;;
1545;SDS011;766;51.502;9.752;2023-03-23T16:33:10;1.20;;;0.70;;
1545;SDS011;766;51.502;9.752;2023-03-23T16:35:48;2.35;;;0.93;;
1545;SDS011;766;51.502;9.752;2023-03-23T16:38:19;1.80;;;0.95;;
1545;SDS011;766;51.502;9.752;2023-03-23T16:40:49;2.08;;;0.80;;
1545;SDS011;766;51.502;9.752;2023-03-23T16:43:18;2.88;;;0.82;;
1545;SDS011;766;51.502;9.752;2023-03-23T16:45:47;1.80;;;1.00;;
1545;SDS011;766;51.502;9.752;2023-03-23T16:48:15;1.75;;;0.77;;
1545;SDS011;766;51.502;9.752;2023-03-23T16:50:44;2.08;;;0.70;;
1545;SDS011;766;51.502;9.752;2023-03-23T16:53:14;2.92;;;1.00;;
1545;SDS011;766;51.502;9.752;2023-03-23T16:56:17;2.83;;;0.82;;
1545;SDS011;766;51.502;9.752;2023-03-23T16:58:46;1.80;;;1.00;;
1545;SDS011;766;51.502;9.752;2023-03-23T17:01:18;2.00;;;0.75;;
1545;SDS011;766;51.502;9.752;2023-03-23T17:03:56;4.28;;;1.15;;
1545;SDS011;766;51.502;9.752;2023-03-23T17:06:31;1.50;;;0.80;;
1545;SDS011;766;51.502;9.752;2023-03-23T17:09:09;2.33;;;0.60;;
1545;SDS011;766;51.502;9.752;2023-03-23T17:11:43;2.08;;;0.80;;
1545;SDS011;766;51.502;9.752;2023-03-23T17:18:00;1.90;;;0.60;;
1545;SDS011;766;51.502;9.752;2023-03-23T17:20:28;0.82;;;0.82;;
1545;SDS011;766;51.502;9.752;2023-03-23T17:22:57;1.33;;;0.70;;
1545;SDS011;766;51.502;9.752;2023-03-23T17:25:26;0.85;;;0.80;;
1545;SDS011;766;51.502;9.752;2023-03-23T17:27:57;0.70;;;0.70;;
1545;SDS011;766;51.502;9.752;2023-03-23T17:30:32;1.15;;;0.90;;
1545;SDS011;766;51.502;9.752;2023-03-23T17:33:01;1.98;;;1.10;;
1545;SDS011;766;51.502;9.752;2023-03-23T17:35:30;3.40;;;1.20;;
1545;SDS011;766;51.502;9.752;2023-03-23T17:37:58;1.92;;;0.95;;
1545;SDS011;766;51.502;9.752;2023-03-23T17:40:26;2.45;;;1.13;;
1545;SDS011;766;51.502;9.752;2023-03-23T17:42:56;2.08;;;0.90;;
1545;SDS011;766;51.502;9.752;2023-03-23T17:45:25;1.92;;;1.08;;
1545;SDS011;766;51.502;9.752;2023-03-23T17:47:53;1.23;;;1.00;;
1545;SDS011;766;51.502;9.752;2023-03-23T17:50:22;2.15;;;0.98;;